sensor_id;sensor_type;location;lat;lon;timestamp;P1;durP1;ratioP1;P2;durP2;ratioP2
67965;SDS011;54749;47.850;9.002;2024-02-04T00:00:29;11.55;;;4.60;;
67965;SDS011;54749;47.850;9.002;2024-02-04T00:03:16;9.50;;;3.80;;
67965;SDS011;54749;47.850;9.002;2024-02-04T00:05:44;8.17;;;3.73;;
67965;SDS011;54749;47.850;9.002;2024-02-04T00:08:11;8.05;;;3.17;;
67965;SDS011;54749;47.850;9.002;2024-02-04T00:10:39;9.68;;;3.20;;
67965;SDS011;54749;47.850;9.002;2024-02-04T00:13:06;12.93;;;5.10;;
67965;SDS011;54749;47.850;9.002;2024-02-04T00:15:34;12.90;;;5.03;;
67965;SDS011;54749;47.850;9.002;2024-02-04T00:18:01;11.10;;;4.60;;
67965;SDS011;54749;47.850;9.002;2024-02-04T00:20:28;11.65;;;5.00;;
67965;SDS011;54749;47.850;9.002;2024-02-04T00:22:56;11.18;;;4.90;;
67965;SDS011;54749;47.850;9.002;2024-02-04T00:25:23;13.65;;;6.13;;
67965;SDS011;54749;47.850;9.002;2024-02-04T00:27:50;14.52;;;6.47;;
67965;SDS011;54749;47.850;9.002;2024-02-04T00:30:17;26.57;;;10.50;;
67965;SDS011;54749;47.850;9.002;2024-02-04T00:32:44;14.85;;;6.70;;
67965;SDS011;54749;47.850;9.002;2024-02-04T00:35:12;13.35;;;5.88;;
67965;SDS011;54749;47.850;9.002;2024-02-04T00:37:39;12.73;;;5.20;;
67965;SDS011;54749;47.850;9.002;2024-02-04T00:40:07;11.38;;;4.97;;
67965;SDS011;54749;47.850;9.002;2024-02-04T00:42:34;9.80;;;4.67;;
67965;SDS011;54749;47.850;9.002;2024-02-04T00:45:02;10.88;;;4.15;;
67965;SDS011;54749;47.850;9.002;2024-02-04T00:47:29;11.45;;;4.93;;
67965;SDS011;54749;47.850;9.002;2024-02-04T00:49:56;12.10;;;5.30;;
67965;SDS011;54749;47.850;9.002;2024-02-04T00:52:23;13.70;;;6.07;;
67965;SDS011;54749;47.850;9.002;2024-02-04T00:54:50;14.00;;;6.00;;
67965;SDS011;54749;47.850;9.002;2024-02-04T00:57:17;11.65;;;4.75;;
67965;SDS011;54749;47.850;9.002;2024-02-04T00:59:45;16.48;;;5.95;;
67965;SDS011;54749;47.850;9.002;2024-02-04T01:02:12;16.83;;;6.18;;
67965;SDS011;54749;47.850;9.002;2024-02-04T01:04:39;14.13;;;5.57;;
67965;SDS011;54749;47.850;9.002;2024-02-04T01:07:06;13.73;;;5.23;;
67965;SDS011;54749;47.850;9.002;2024-02-04T01:09:34;20.88;;;6.18;;
67965;SDS011;54749;47.850;9.002;2024-02-04T01:12:01;17.95;;;6.28;;
67965;SDS011;54749;47.850;9.002;2024-02-04T01:14:28;36.28;;;10.20;;
67965;SDS011;54749;47.850;9.002;2024-02-04T01:16:55;33.60;;;9.95;;
67965;SDS011;54749;47.850;9.002;2024-02-04T01:19:22;82.20;;;16.30;;
67965;SDS011;54749;47.850;9.002;2024-02-04T01:21:50;90.80;;;17.15;;
67965;SDS011;54749;47.850;9.002;2024-02-04T01:24:17;77.82;;;17.25;;
67965;SDS011;54749;47.850;9.002;2024-02-04T01:26:44;65.60;;;14.90;;
67965;SDS011;54749;47.850;9.002;2024-02-04T01:29:11;39.75;;;11.05;;
67965;SDS011;54749;47.850;9.002;2024-02-04T01:31:38;31.73;;;9.13;;
67965;SDS011;54749;47.850;9.002;2024-02-04T01:34:05;41.47;;;9.48;;
67965;SDS011;54749;47.850;9.002;2024-02-04T01:36:32;59.22;;;14.98;;
67965;SDS011;54749;47.850;9.002;2024-02-04T01:39:00;57.13;;;13.80;;
67965;SDS011;54749;47.850;9.002;2024-02-04T01:41:27;43.28;;;10.90;;
67965;SDS011;54749;47.850;9.002;2024-02-04T01:43:54;51.30;;;13.17;;
67965;SDS011;54749;47.850;9.002;2024-02-04T01:46:22;40.88;;;10.32;;
67965;SDS011;54749;47.850;9.002;2024-02-04T01:48:49;41.97;;;10.30;;
67965;SDS011;54749;47.850;9.002;2024-02-04T01:51:17;45.75;;;10.65;;
67965;SDS011;54749;47.850;9.002;2024-02-04T01:53:47;53.88;;;12.30;;
67965;SDS011;54749;47.850;9.002;2024-02-04T01:56:15;50.10;;;10.97;;
67965;SDS011;54749;47.850;9.002;2024-02-04T01:58:43;44.08;;;11.10;;
67965;SDS011;54749;47.850;9.002;2024-02-04T02:01:12;33.00;;;9.55;;
67965;SDS011;54749;47.850;9.002;2024-02-04T02:03:40;40.55;;;9.52;;
67965;SDS011;54749;47.850;9.002;2024-02-04T02:06:08;43.03;;;10.27;;
67965;SDS011;54749;47.850;9.002;2024-02-04T02:08:35;34.87;;;9.53;;
67965;SDS011;54749;47.850;9.002;2024-02-04T02:11:05;30.23;;;9.30;;
67965;SDS011;54749;47.850;9.002;2024-02-04T02:13:38;27.23;;;7.32;;
67965;SDS011;54749;47.850;9.002;2024-02-04T02:16:11;22.95;;;6.82;;
67965;SDS011;54749;47.850;9.002;2024-02-04T02:18:55;30.20;;;9.27;;
67965;SDS011;54749;47.850;9.002;2024-02-04T02:21:47;24.13;;;7.00;;
67965;SDS011;54749;47.850;9.002;2024-02-04T02:26:50;26.58;;;9.25;;
67965;SDS011;54749;47.850;9.002;2024-02-04T02:29:18;55.78;;;12.65;;
67965;SDS011;54749;47.850;9.002;2024-02-04T02:31:46;61.38;;;11.95;;
67965;SDS011;54749;47.850;9.002;2024-02-04T02:34:15;43.07;;;9.70;;
67965;SDS011;54749;47.850;9.002;2024-02-04T02:36:51;30.70;;;7.20;;
67965;SDS011;54749;47.850;9.002;2024-02-04T02:39:24;16.55;;;5.72;;
67965;SDS011;54749;47.850;9.002;2024-02-04T02:41:55;13.50;;;5.28;;
67965;SDS011;54749;47.850;9.002;2024-02-04T02:44:27;15.20;;;5.90;;
67965;SDS011;54749;47.850;9.002;2024-02-04T02:46:55;15.37;;;5.53;;
67965;SDS011;54749;47.850;9.002;2024-02-04T02:49:25;14.18;;;5.22;;
67965;SDS011;54749;47.850;9.002;2024-02-04T02:51:53;14.85;;;5.00;;
67965;SDS011;54749;47.850;9.002;2024-02-04T02:54:20;15.00;;;6.03;;
67965;SDS011;54749;47.850;9.002;2024-02-04T02:56:47;21.27;;;6.57;;
67965;SDS011;54749;47.850;9.002;2024-02-04T02:59:14;22.63;;;7.47;;
67965;SDS011;54749;47.850;9.002;2024-02-04T03:01:41;25.02;;;7.32;;
67965;SDS011;54749;47.850;9.002;2024-02-04T03:04:09;19.33;;;6.32;;
67965;SDS011;54749;47.850;9.002;2024-02-04T03:06:37;39.25;;;8.80;;
67965;SDS011;54749;47.850;9.002;2024-02-04T03:09:04;32.25;;;9.43;;
67965;SDS011;54749;47.850;9.002;2024-02-04T03:11:31;23.63;;;6.93;;
67965;SDS011;54749;47.850;9.002;2024-02-04T03:13:58;25.25;;;7.05;;
67965;SDS011;54749;47.850;9.002;2024-02-04T03:16:25;27.52;;;7.80;;
67965;SDS011;54749;47.850;9.002;2024-02-04T03:18:53;33.55;;;8.70;;
67965;SDS011;54749;47.850;9.002;2024-02-04T03:21:20;22.63;;;7.82;;
67965;SDS011;54749;47.850;9.002;2024-02-04T03:23:47;22.83;;;7.03;;
67965;SDS011;54749;47.850;9.002;2024-02-04T03:26:17;20.30;;;6.70;;
67965;SDS011;54749;47.850;9.002;2024-02-04T03:28:49;26.40;;;7.10;;
67965;SDS011;54749;47.850;9.002;2024-02-04T03:31:19;25.10;;;7.03;;
67965;SDS011;54749;47.850;9.002;2024-02-04T03:33:48;20.33;;;6.63;;
67965;SDS011;54749;47.850;9.002;2024-02-04T03:36:17;25.37;;;6.90;;
67965;SDS011;54749;47.850;9.002;2024-02-04T03:38:53;25.75;;;6.70;;
67965;SDS011;54749;47.850;9.002;2024-02-04T03:41:20;43.20;;;10.52;;
67965;SDS011;54749;47.850;9.002;2024-02-04T03:43:47;35.72;;;9.32;;
67965;SDS011;54749;47.850;9.002;2024-02-04T03:46:15;27.92;;;9.00;;
67965;SDS011;54749;47.850;9.002;2024-02-04T03:48:43;25.03;;;7.60;;
67965;SDS011;54749;47.850;9.002;2024-02-04T03:51:15;14.90;;;5.18;;
67965;SDS011;54749;47.850;9.002;2024-02-04T03:53:44;12.13;;;4.10;;
67965;SDS011;54749;47.850;9.002;2024-02-04T03:56:12;12.18;;;4.43;;
67965;SDS011;54749;47.850;9.002;2024-02-04T03:58:40;8.80;;;3.72;;
67965;SDS011;54749;47.850;9.002;2024-02-04T04:01:10;8.53;;;3.40;;
67965;SDS011;54749;47.850;9.002;2024-02-04T04:03:39;8.50;;;3.38;;
67965;SDS011;54749;47.850;9.002;2024-02-04T04:06:08;11.43;;;4.15;;
67965;SDS011;54749;47.850;9.002;2024-02-04T04:08:37;12.35;;;4.82;;
67965;SDS011;54749;47.850;9.002;2024-02-04T04:11:04;17.80;;;6.50;;
67965;SDS011;54749;47.850;9.002;2024-02-04T04:13:32;18.37;;;6.53;;
67965;SDS011;54749;47.850;9.002;2024-02-04T04:16:02;30.40;;;8.35;;
67965;SDS011;54749;47.850;9.002;2024-02-04T04:18:31;29.45;;;9.00;;
67965;SDS011;54749;47.850;9.002;2024-02-04T04:20:58;40.17;;;12.57;;
67965;SDS011;54749;47.850;9.002;2024-02-04T04:23:25;45.55;;;13.98;;
67965;SDS011;54749;47.850;9.002;2024-02-04T04:25:52;44.30;;;14.33;;
67965;SDS011;54749;47.850;9.002;2024-02-04T04:28:20;32.97;;;11.70;;
67965;SDS011;54749;47.850;9.002;2024-02-04T04:30:47;28.10;;;9.88;;
67965;SDS011;54749;47.850;9.002;2024-02-04T04:33:14;28.17;;;10.13;;
67965;SDS011;54749;47.850;9.002;2024-02-04T04:35:42;23.30;;;8.93;;
67965;SDS011;54749;47.850;9.002;2024-02-04T04:38:09;22.53;;;8.10;;
67965;SDS011;54749;47.850;9.002;2024-02-04T04:40:36;20.35;;;7.65;;
67965;SDS011;54749;47.850;9.002;2024-02-04T04:43:04;19.13;;;6.53;;
67965;SDS011;54749;47.850;9.002;2024-02-04T04:45:31;21.10;;;7.40;;
67965;SDS011;54749;47.850;9.002;2024-02-04T04:47:58;13.75;;;5.28;;
67965;SDS011;54749;47.850;9.002;2024-02-04T04:50:26;15.93;;;5.63;;
67965;SDS011;54749;47.850;9.002;2024-02-04T04:52:53;16.52;;;6.57;;
67965;SDS011;54749;47.850;9.002;2024-02-04T04:55:20;15.20;;;5.13;;
67965;SDS011;54749;47.850;9.002;2024-02-04T04:57:48;17.15;;;6.38;;
67965;SDS011;54749;47.850;9.002;2024-02-04T05:00:15;14.65;;;5.03;;
67965;SDS011;54749;47.850;9.002;2024-02-04T05:02:43;15.90;;;6.40;;
67965;SDS011;54749;47.850;9.002;2024-02-04T05:05:11;12.07;;;4.60;;
67965;SDS011;54749;47.850;9.002;2024-02-04T05:07:39;10.77;;;4.60;;
67965;SDS011;54749;47.850;9.002;2024-02-04T05:10:07;12.73;;;4.88;;
67965;SDS011;54749;47.850;9.002;2024-02-04T05:12:35;15.95;;;5.90;;
67965;SDS011;54749;47.850;9.002;2024-02-04T05:15:04;10.77;;;4.40;;
67965;SDS011;54749;47.850;9.002;2024-02-04T05:17:32;10.38;;;4.00;;
67965;SDS011;54749;47.850;9.002;2024-02-04T05:20:00;12.25;;;4.65;;
67965;SDS011;54749;47.850;9.002;2024-02-04T05:22:30;14.00;;;5.50;;
67965;SDS011;54749;47.850;9.002;2024-02-04T05:24:57;13.88;;;5.60;;
67965;SDS011;54749;47.850;9.002;2024-02-04T05:27:25;12.83;;;4.57;;
67965;SDS011;54749;47.850;9.002;2024-02-04T05:29:53;14.68;;;5.53;;
67965;SDS011;54749;47.850;9.002;2024-02-04T05:32:20;15.35;;;5.80;;
67965;SDS011;54749;47.850;9.002;2024-02-04T05:34:47;13.00;;;4.95;;
67965;SDS011;54749;47.850;9.002;2024-02-04T05:37:15;17.75;;;7.05;;
67965;SDS011;54749;47.850;9.002;2024-02-04T05:39:42;20.87;;;7.70;;
67965;SDS011;54749;47.850;9.002;2024-02-04T05:42:09;17.38;;;6.10;;
67965;SDS011;54749;47.850;9.002;2024-02-04T05:44:36;12.13;;;4.90;;
67965;SDS011;54749;47.850;9.002;2024-02-04T05:47:04;12.77;;;5.18;;
67965;SDS011;54749;47.850;9.002;2024-02-04T05:49:31;16.52;;;6.13;;
67965;SDS011;54749;47.850;9.002;2024-02-04T05:51:59;11.87;;;4.47;;
67965;SDS011;54749;47.850;9.002;2024-02-04T05:54:26;13.60;;;4.97;;
67965;SDS011;54749;47.850;9.002;2024-02-04T05:56:53;13.60;;;4.95;;
67965;SDS011;54749;47.850;9.002;2024-02-04T05:59:20;12.98;;;4.45;;
67965;SDS011;54749;47.850;9.002;2024-02-04T06:01:47;9.35;;;3.60;;
67965;SDS011;54749;47.850;9.002;2024-02-04T06:04:14;9.63;;;3.93;;
67965;SDS011;54749;47.850;9.002;2024-02-04T06:06:42;9.63;;;3.85;;
67965;SDS011;54749;47.850;9.002;2024-02-04T06:09:09;10.35;;;3.60;;
67965;SDS011;54749;47.850;9.002;2024-02-04T06:11:37;8.35;;;3.28;;
67965;SDS011;54749;47.850;9.002;2024-02-04T06:14:04;8.85;;;3.50;;
67965;SDS011;54749;47.850;9.002;2024-02-04T06:16:32;9.83;;;3.90;;
67965;SDS011;54749;47.850;9.002;2024-02-04T06:19:01;14.65;;;6.00;;
67965;SDS011;54749;47.850;9.002;2024-02-04T06:21:28;32.15;;;12.27;;
67965;SDS011;54749;47.850;9.002;2024-02-04T06:23:55;27.42;;;10.55;;
67965;SDS011;54749;47.850;9.002;2024-02-04T06:26:23;88.07;;;34.20;;
67965;SDS011;54749;47.850;9.002;2024-02-04T06:28:50;41.03;;;17.30;;
67965;SDS011;54749;47.850;9.002;2024-02-04T06:31:18;41.92;;;16.15;;
67965;SDS011;54749;47.850;9.002;2024-02-04T06:33:45;31.73;;;13.40;;
67965;SDS011;54749;47.850;9.002;2024-02-04T06:36:13;21.63;;;8.98;;
67965;SDS011;54749;47.850;9.002;2024-02-04T06:38:40;25.90;;;10.65;;
67965;SDS011;54749;47.850;9.002;2024-02-04T06:41:07;27.70;;;11.00;;
67965;SDS011;54749;47.850;9.002;2024-02-04T06:43:36;19.30;;;6.93;;
67965;SDS011;54749;47.850;9.002;2024-02-04T06:46:04;33.40;;;13.45;;
67965;SDS011;54749;47.850;9.002;2024-02-04T06:48:31;32.63;;;12.05;;
67965;SDS011;54749;47.850;9.002;2024-02-04T06:50:58;37.58;;;13.90;;
67965;SDS011;54749;47.850;9.002;2024-02-04T06:53:26;34.27;;;13.70;;
67965;SDS011;54749;47.850;9.002;2024-02-04T06:55:53;49.25;;;20.63;;
67965;SDS011;54749;47.850;9.002;2024-02-04T06:58:20;31.95;;;12.73;;
67965;SDS011;54749;47.850;9.002;2024-02-04T07:00:47;16.85;;;7.38;;
67965;SDS011;54749;47.850;9.002;2024-02-04T07:03:15;7.00;;;2.78;;
67965;SDS011;54749;47.850;9.002;2024-02-04T07:05:42;6.73;;;2.30;;
67965;SDS011;54749;47.850;9.002;2024-02-04T07:08:13;4.07;;;1.55;;
67965;SDS011;54749;47.850;9.002;2024-02-04T07:10:41;4.68;;;1.83;;
67965;SDS011;54749;47.850;9.002;2024-02-04T07:13:08;6.88;;;2.45;;
67965;SDS011;54749;47.850;9.002;2024-02-04T07:15:38;4.68;;;1.77;;
67965;SDS011;54749;47.850;9.002;2024-02-04T07:18:06;5.07;;;1.90;;
67965;SDS011;54749;47.850;9.002;2024-02-04T07:20:33;3.75;;;1.42;;
67965;SDS011;54749;47.850;9.002;2024-02-04T07:23:00;4.68;;;1.55;;
67965;SDS011;54749;47.850;9.002;2024-02-04T07:25:28;4.63;;;1.70;;
67965;SDS011;54749;47.850;9.002;2024-02-04T07:27:55;5.93;;;2.40;;
67965;SDS011;54749;47.850;9.002;2024-02-04T07:30:23;8.10;;;2.17;;
67965;SDS011;54749;47.850;9.002;2024-02-04T07:32:51;6.03;;;1.88;;
67965;SDS011;54749;47.850;9.002;2024-02-04T07:35:18;5.03;;;2.10;;
67965;SDS011;54749;47.850;9.002;2024-02-04T07:37:45;5.00;;;2.00;;
67965;SDS011;54749;47.850;9.002;2024-02-04T07:40:12;5.20;;;1.75;;
67965;SDS011;54749;47.850;9.002;2024-02-04T07:42:39;4.23;;;1.60;;
67965;SDS011;54749;47.850;9.002;2024-02-04T07:45:07;5.80;;;1.83;;
67965;SDS011;54749;47.850;9.002;2024-02-04T07:47:36;3.78;;;1.50;;
67965;SDS011;54749;47.850;9.002;2024-02-04T07:50:03;3.90;;;1.40;;
67965;SDS011;54749;47.850;9.002;2024-02-04T07:52:31;3.85;;;1.60;;
67965;SDS011;54749;47.850;9.002;2024-02-04T07:54:59;3.60;;;1.40;;
67965;SDS011;54749;47.850;9.002;2024-02-04T07:57:26;3.88;;;1.60;;
67965;SDS011;54749;47.850;9.002;2024-02-04T07:59:53;3.70;;;1.38;;
67965;SDS011;54749;47.850;9.002;2024-02-04T08:02:20;4.20;;;1.60;;
67965;SDS011;54749;47.850;9.002;2024-02-04T08:04:48;4.65;;;1.80;;
67965;SDS011;54749;47.850;9.002;2024-02-04T08:07:15;4.87;;;2.00;;
67965;SDS011;54749;47.850;9.002;2024-02-04T08:09:45;76.63;;;32.95;;
67965;SDS011;54749;47.850;9.002;2024-02-04T08:12:12;59.10;;;30.17;;
67965;SDS011;54749;47.850;9.002;2024-02-04T08:14:39;62.90;;;30.80;;
67965;SDS011;54749;47.850;9.002;2024-02-04T08:17:06;39.85;;;19.33;;
67965;SDS011;54749;47.850;9.002;2024-02-04T08:19:34;24.57;;;12.57;;
67965;SDS011;54749;47.850;9.002;2024-02-04T08:22:01;82.93;;;43.28;;
67965;SDS011;54749;47.850;9.002;2024-02-04T08:24:29;145.93;;;75.65;;
67965;SDS011;54749;47.850;9.002;2024-02-04T08:26:58;80.22;;;43.13;;
67965;SDS011;54749;47.850;9.002;2024-02-04T08:29:26;40.35;;;21.92;;
67965;SDS011;54749;47.850;9.002;2024-02-04T08:31:53;17.90;;;8.73;;
67965;SDS011;54749;47.850;9.002;2024-02-04T08:34:21;10.73;;;5.55;;
67965;SDS011;54749;47.850;9.002;2024-02-04T08:36:50;9.02;;;4.47;;
67965;SDS011;54749;47.850;9.002;2024-02-04T08:39:18;12.48;;;6.07;;
67965;SDS011;54749;47.850;9.002;2024-02-04T08:41:45;34.30;;;19.88;;
67965;SDS011;54749;47.850;9.002;2024-02-04T08:44:12;18.97;;;11.20;;
67965;SDS011;54749;47.850;9.002;2024-02-04T08:46:57;10.13;;;6.00;;
67965;SDS011;54749;47.850;9.002;2024-02-04T08:49:25;17.48;;;9.82;;
67965;SDS011;54749;47.850;9.002;2024-02-04T08:51:52;10.48;;;5.50;;
67965;SDS011;54749;47.850;9.002;2024-02-04T08:54:19;7.68;;;3.17;;
67965;SDS011;54749;47.850;9.002;2024-02-04T08:56:46;5.37;;;1.67;;
67965;SDS011;54749;47.850;9.002;2024-02-04T08:59:14;4.80;;;1.40;;
67965;SDS011;54749;47.850;9.002;2024-02-04T09:01:41;24.27;;;12.75;;
67965;SDS011;54749;47.850;9.002;2024-02-04T09:04:08;7.72;;;4.00;;
67965;SDS011;54749;47.850;9.002;2024-02-04T09:06:35;5.13;;;1.98;;
67965;SDS011;54749;47.850;9.002;2024-02-04T09:09:03;3.60;;;1.30;;
67965;SDS011;54749;47.850;9.002;2024-02-04T09:11:30;4.18;;;1.05;;
67965;SDS011;54749;47.850;9.002;2024-02-04T09:13:58;4.65;;;2.10;;
67965;SDS011;54749;47.850;9.002;2024-02-04T09:16:25;3.42;;;1.30;;
67965;SDS011;54749;47.850;9.002;2024-02-04T09:18:52;5.68;;;1.65;;
67965;SDS011;54749;47.850;9.002;2024-02-04T09:21:19;3.77;;;1.30;;
67965;SDS011;54749;47.850;9.002;2024-02-04T09:23:47;3.78;;;1.00;;
67965;SDS011;54749;47.850;9.002;2024-02-04T09:26:14;5.50;;;1.35;;
67965;SDS011;54749;47.850;9.002;2024-02-04T09:28:45;5.60;;;2.17;;
67965;SDS011;54749;47.850;9.002;2024-02-04T09:31:13;7.78;;;3.97;;
67965;SDS011;54749;47.850;9.002;2024-02-04T09:33:41;5.97;;;3.20;;
67965;SDS011;54749;47.850;9.002;2024-02-04T09:36:08;10.95;;;5.63;;
67965;SDS011;54749;47.850;9.002;2024-02-04T09:38:36;7.68;;;3.25;;
67965;SDS011;54749;47.850;9.002;2024-02-04T09:41:03;4.50;;;1.52;;
67965;SDS011;54749;47.850;9.002;2024-02-04T09:43:32;3.92;;;1.52;;
67965;SDS011;54749;47.850;9.002;2024-02-04T09:46:00;5.60;;;2.20;;
67965;SDS011;54749;47.850;9.002;2024-02-04T09:48:32;7.65;;;2.53;;
67965;SDS011;54749;47.850;9.002;2024-02-04T09:51:00;10.60;;;3.70;;
67965;SDS011;54749;47.850;9.002;2024-02-04T09:53:31;19.38;;;9.15;;
67965;SDS011;54749;47.850;9.002;2024-02-04T09:56:02;24.65;;;12.15;;
67965;SDS011;54749;47.850;9.002;2024-02-04T09:58:33;8.03;;;3.97;;
67965;SDS011;54749;47.850;9.002;2024-02-04T10:01:00;7.13;;;2.55;;
67965;SDS011;54749;47.850;9.002;2024-02-04T10:03:28;5.53;;;2.10;;
67965;SDS011;54749;47.850;9.002;2024-02-04T10:05:56;6.53;;;1.75;;
67965;SDS011;54749;47.850;9.002;2024-02-04T10:08:23;6.25;;;2.20;;
67965;SDS011;54749;47.850;9.002;2024-02-04T10:10:51;9.27;;;4.20;;
67965;SDS011;54749;47.850;9.002;2024-02-04T10:13:21;4.53;;;1.67;;
67965;SDS011;54749;47.850;9.002;2024-02-04T10:15:49;3.85;;;1.00;;
67965;SDS011;54749;47.850;9.002;2024-02-04T10:18:16;3.00;;;1.00;;
67965;SDS011;54749;47.850;9.002;2024-02-04T10:20:44;4.47;;;1.40;;
67965;SDS011;54749;47.850;9.002;2024-02-04T10:23:12;5.80;;;1.20;;
67965;SDS011;54749;47.850;9.002;2024-02-04T10:25:39;4.63;;;1.30;;
67965;SDS011;54749;47.850;9.002;2024-02-04T10:28:06;2.53;;;0.80;;
67965;SDS011;54749;47.850;9.002;2024-02-04T10:30:37;3.70;;;1.42;;
67965;SDS011;54749;47.850;9.002;2024-02-04T10:33:05;4.22;;;1.77;;
67965;SDS011;54749;47.850;9.002;2024-02-04T10:35:32;3.70;;;0.80;;
67965;SDS011;54749;47.850;9.002;2024-02-04T10:38:00;3.45;;;0.80;;
67965;SDS011;54749;47.850;9.002;2024-02-04T10:40:27;3.95;;;0.70;;
67965;SDS011;54749;47.850;9.002;2024-02-04T10:42:55;3.85;;;0.73;;
67965;SDS011;54749;47.850;9.002;2024-02-04T10:45:26;6.82;;;2.50;;
67965;SDS011;54749;47.850;9.002;2024-02-04T10:48:00;17.10;;;6.07;;
67965;SDS011;54749;47.850;9.002;2024-02-04T10:50:29;10.77;;;4.57;;
67965;SDS011;54749;47.850;9.002;2024-02-04T10:53:00;10.13;;;4.25;;
67965;SDS011;54749;47.850;9.002;2024-02-04T10:55:31;4.10;;;1.58;;
67965;SDS011;54749;47.850;9.002;2024-02-04T10:58:02;7.45;;;3.03;;
67965;SDS011;54749;47.850;9.002;2024-02-04T11:00:30;5.87;;;1.53;;
67965;SDS011;54749;47.850;9.002;2024-02-04T11:02:58;6.82;;;2.03;;
67965;SDS011;54749;47.850;9.002;2024-02-04T11:05:26;4.10;;;1.40;;
67965;SDS011;54749;47.850;9.002;2024-02-04T11:07:53;5.05;;;2.00;;
67965;SDS011;54749;47.850;9.002;2024-02-04T11:10:21;7.95;;;4.85;;
67965;SDS011;54749;47.850;9.002;2024-02-04T11:12:49;5.13;;;2.50;;
67965;SDS011;54749;47.850;9.002;2024-02-04T11:15:17;7.78;;;2.65;;
67965;SDS011;54749;47.850;9.002;2024-02-04T11:26:08;5.97;;;2.00;;
67965;SDS011;54749;47.850;9.002;2024-02-04T11:28:36;5.80;;;1.30;;
67965;SDS011;54749;47.850;9.002;2024-02-04T11:31:04;8.13;;;3.45;;
67965;SDS011;54749;47.850;9.002;2024-02-04T11:33:32;3.95;;;1.00;;
67965;SDS011;54749;47.850;9.002;2024-02-04T11:36:03;5.72;;;2.13;;
67965;SDS011;54749;47.850;9.002;2024-02-04T11:38:33;4.90;;;1.20;;
67965;SDS011;54749;47.850;9.002;2024-02-04T11:41:03;4.95;;;1.33;;
67965;SDS011;54749;47.850;9.002;2024-02-04T11:43:34;5.32;;;2.08;;
67965;SDS011;54749;47.850;9.002;2024-02-04T11:46:03;7.18;;;2.45;;
67965;SDS011;54749;47.850;9.002;2024-02-04T11:48:32;4.10;;;1.10;;
67965;SDS011;54749;47.850;9.002;2024-02-04T11:51:01;3.50;;;0.90;;
67965;SDS011;54749;47.850;9.002;2024-02-04T11:53:31;2.55;;;0.80;;
67965;SDS011;54749;47.850;9.002;2024-02-04T11:56:00;4.32;;;2.50;;
67965;SDS011;54749;47.850;9.002;2024-02-04T11:58:28;25.98;;;10.23;;
67965;SDS011;54749;47.850;9.002;2024-02-04T12:00:56;22.15;;;10.15;;
67965;SDS011;54749;47.850;9.002;2024-02-04T12:03:29;6.47;;;2.40;;
67965;SDS011;54749;47.850;9.002;2024-02-04T12:06:00;3.50;;;1.10;;
67965;SDS011;54749;47.850;9.002;2024-02-04T12:08:31;4.18;;;1.30;;
67965;SDS011;54749;47.850;9.002;2024-02-04T12:10:59;5.20;;;1.48;;
67965;SDS011;54749;47.850;9.002;2024-02-04T12:13:28;7.45;;;2.20;;
67965;SDS011;54749;47.850;9.002;2024-02-04T12:15:55;6.10;;;1.90;;
67965;SDS011;54749;47.850;9.002;2024-02-04T12:18:23;3.28;;;1.05;;
67965;SDS011;54749;47.850;9.002;2024-02-04T12:20:50;2.80;;;0.80;;
67965;SDS011;54749;47.850;9.002;2024-02-04T12:23:18;3.92;;;1.10;;
67965;SDS011;54749;47.850;9.002;2024-02-04T12:25:46;3.40;;;1.00;;
67965;SDS011;54749;47.850;9.002;2024-02-04T12:28:14;4.17;;;1.30;;
67965;SDS011;54749;47.850;9.002;2024-02-04T12:30:51;4.30;;;1.52;;
67965;SDS011;54749;47.850;9.002;2024-02-04T12:33:20;4.25;;;2.20;;
67965;SDS011;54749;47.850;9.002;2024-02-04T12:35:50;4.80;;;1.52;;
67965;SDS011;54749;47.850;9.002;2024-02-04T12:38:19;3.70;;;1.20;;
67965;SDS011;54749;47.850;9.002;2024-02-04T12:40:46;5.97;;;3.43;;
67965;SDS011;54749;47.850;9.002;2024-02-04T12:43:13;7.97;;;5.05;;
67965;SDS011;54749;47.850;9.002;2024-02-04T12:45:41;5.60;;;2.17;;
67965;SDS011;54749;47.850;9.002;2024-02-04T12:48:09;2.88;;;0.85;;
67965;SDS011;54749;47.850;9.002;2024-02-04T12:50:37;5.80;;;2.72;;
67965;SDS011;54749;47.850;9.002;2024-02-04T12:53:05;8.20;;;2.30;;
67965;SDS011;54749;47.850;9.002;2024-02-04T12:55:36;8.80;;;4.35;;
67965;SDS011;54749;47.850;9.002;2024-02-04T12:58:11;5.47;;;2.13;;
67965;SDS011;54749;47.850;9.002;2024-02-04T13:00:39;5.15;;;1.73;;
67965;SDS011;54749;47.850;9.002;2024-02-04T13:03:07;12.75;;;5.53;;
67965;SDS011;54749;47.850;9.002;2024-02-04T13:05:36;19.80;;;8.00;;
67965;SDS011;54749;47.850;9.002;2024-02-04T13:08:04;13.23;;;8.05;;
67965;SDS011;54749;47.850;9.002;2024-02-04T13:10:33;12.07;;;6.05;;
67965;SDS011;54749;47.850;9.002;2024-02-04T13:13:05;7.78;;;3.40;;
67965;SDS011;54749;47.850;9.002;2024-02-04T13:15:42;15.02;;;4.80;;
67965;SDS011;54749;47.850;9.002;2024-02-04T13:18:11;6.00;;;1.87;;
67965;SDS011;54749;47.850;9.002;2024-02-04T13:20:41;25.70;;;11.75;;
67965;SDS011;54749;47.850;9.002;2024-02-04T13:23:09;27.55;;;20.40;;
67965;SDS011;54749;47.850;9.002;2024-02-04T13:25:36;17.55;;;12.20;;
67965;SDS011;54749;47.850;9.002;2024-02-04T13:28:04;13.65;;;8.73;;
67965;SDS011;54749;47.850;9.002;2024-02-04T13:30:32;21.20;;;15.30;;
67965;SDS011;54749;47.850;9.002;2024-02-04T13:33:00;9.68;;;6.10;;
67965;SDS011;54749;47.850;9.002;2024-02-04T13:35:29;4.93;;;2.25;;
67965;SDS011;54749;47.850;9.002;2024-02-04T13:37:57;4.95;;;1.58;;
67965;SDS011;54749;47.850;9.002;2024-02-04T13:40:24;3.10;;;1.10;;
67965;SDS011;54749;47.850;9.002;2024-02-04T13:42:52;5.60;;;2.63;;
67965;SDS011;54749;47.850;9.002;2024-02-04T13:45:19;6.38;;;1.80;;
67965;SDS011;54749;47.850;9.002;2024-02-04T13:47:46;6.10;;;2.65;;
67965;SDS011;54749;47.850;9.002;2024-02-04T13:50:14;5.97;;;2.47;;
67965;SDS011;54749;47.850;9.002;2024-02-04T13:52:41;5.82;;;2.30;;
67965;SDS011;54749;47.850;9.002;2024-02-04T13:55:08;6.43;;;2.17;;
67965;SDS011;54749;47.850;9.002;2024-02-04T13:57:36;4.38;;;1.70;;
67965;SDS011;54749;47.850;9.002;2024-02-04T14:00:03;3.78;;;1.20;;
67965;SDS011;54749;47.850;9.002;2024-02-04T14:02:33;4.60;;;1.70;;
67965;SDS011;54749;47.850;9.002;2024-02-04T14:05:00;6.07;;;1.50;;
67965;SDS011;54749;47.850;9.002;2024-02-04T14:07:28;4.33;;;1.40;;
67965;SDS011;54749;47.850;9.002;2024-02-04T14:09:56;6.55;;;1.85;;
67965;SDS011;54749;47.850;9.002;2024-02-04T14:12:23;4.70;;;1.60;;
67965;SDS011;54749;47.850;9.002;2024-02-04T14:14:50;5.28;;;1.65;;
67965;SDS011;54749;47.850;9.002;2024-02-04T14:17:19;6.55;;;3.22;;
67965;SDS011;54749;47.850;9.002;2024-02-04T14:19:46;10.73;;;5.53;;
67965;SDS011;54749;47.850;9.002;2024-02-04T14:22:16;9.00;;;4.97;;
67965;SDS011;54749;47.850;9.002;2024-02-04T14:24:47;9.93;;;4.93;;
67965;SDS011;54749;47.850;9.002;2024-02-04T14:27:14;27.15;;;20.40;;
67965;SDS011;54749;47.850;9.002;2024-02-04T14:29:41;13.82;;;9.60;;
67965;SDS011;54749;47.850;9.002;2024-02-04T14:32:09;13.90;;;8.93;;
67965;SDS011;54749;47.850;9.002;2024-02-04T14:34:36;18.08;;;9.30;;
67965;SDS011;54749;47.850;9.002;2024-02-04T14:37:04;10.80;;;5.18;;
67965;SDS011;54749;47.850;9.002;2024-02-04T14:39:31;10.30;;;5.75;;
67965;SDS011;54749;47.850;9.002;2024-02-04T14:41:59;11.65;;;7.03;;
67965;SDS011;54749;47.850;9.002;2024-02-04T14:44:26;19.60;;;13.03;;
67965;SDS011;54749;47.850;9.002;2024-02-04T14:46:54;10.02;;;4.25;;
67965;SDS011;54749;47.850;9.002;2024-02-04T14:49:21;29.10;;;18.05;;
67965;SDS011;54749;47.850;9.002;2024-02-04T14:51:48;20.98;;;13.60;;
67965;SDS011;54749;47.850;9.002;2024-02-04T14:54:15;21.38;;;14.20;;